Time;durP1;ratioP1;P1;durP2;ratioP2;P2;SDS_P1;SDS_P2;PMS_P1;PMS_P2;Temp;Humidity;BMP_temperature;BMP_pressure;BME280_temperature;BME280_humidity;BME280_pressure;Samples;Min_cycle;Max_cycle;Signal;HPM_P1;HPM_P2
2021/01/05 00:01:13;;;;;;;19.37;8.50;;;2.70;82.80;;;;;;5053368;28;20363;-73
2021/01/05 00:03:39;;;;;;;19.37;7.83;;;2.70;82.10;;;;;;5052692;28;20025;-73
2021/01/05 00:06:05;;;;;;;17.83;7.67;;;2.70;82.00;;;;;;5053316;28;20025;-74
2021/01/05 00:08:31;;;;;;;21.10;7.90;;;2.80;82.10;;;;;;5053736;28;20037;-73
2021/01/05 00:10:57;;;;;;;19.83;7.87;;;2.80;82.30;;;;;;5053222;28;20074;-73
2021/01/05 00:13:22;;;;;;;17.43;7.93;;;2.70;82.70;;;;;;5053821;28;20519;-73
2021/01/05 00:15:48;;;;;;;18.33;8.00;;;2.70;82.60;;;;;;5054051;28;20025;-73
2021/01/05 00:18:14;;;;;;;19.80;8.20;;;2.70;82.60;;;;;;5053127;28;20422;-73
2021/01/05 00:20:40;;;;;;;20.27;8.50;;;2.70;82.70;;;;;;5052264;28;20386;-74
2021/01/05 00:23:06;;;;;;;22.70;8.87;;;2.80;82.60;;;;;;5051653;28;20398;-73
2021/01/05 00:25:32;;;;;;;20.43;8.60;;;2.70;82.30;;;;;;5052422;28;20029;-73
2021/01/05 00:27:58;;;;;;;23.03;9.50;;;2.70;82.60;;;;;;5051183;28;20051;-73
2021/01/05 00:30:25;;;;;;;19.90;8.80;;;2.70;82.40;;;;;;5052276;28;20032;-73
2021/01/05 00:32:53;;;;;;;21.27;8.80;;;2.70;82.50;;;;;;5053083;28;20440;-74
2021/01/05 00:35:24;;;;;;;23.27;8.63;;;2.70;83.00;;;;;;5053453;28;20028;-73
2021/01/05 00:37:51;;;;;;;19.13;8.07;;;2.60;83.50;;;;;;5053332;28;20075;-73
2021/01/05 00:40:17;;;;;;;21.47;8.93;;;2.60;83.50;;;;;;5052693;28;20025;-73
2021/01/05 00:42:43;;;;;;;17.73;8.13;;;2.70;83.40;;;;;;5051886;28;20025;-73
2021/01/05 00:45:10;;;;;;;19.57;8.63;;;2.70;83.40;;;;;;5051263;28;20024;-73
2021/01/05 00:47:35;;;;;;;17.53;7.93;;;2.70;83.20;;;;;;5051863;28;20106;-73
2021/01/05 00:50:02;;;;;;;22.13;8.80;;;2.70;82.90;;;;;;5051161;28;20466;-73
2021/01/05 00:52:28;;;;;;;17.73;8.03;;;2.80;83.20;;;;;;5053295;28;20064;-73
2021/01/05 00:54:54;;;;;;;16.77;7.87;;;2.80;83.20;;;;;;5052632;28;20450;-72
2021/01/05 00:57:19;;;;;;;23.43;8.30;;;2.80;83.30;;;;;;5051950;28;20061;-73
2021/01/05 00:59:45;;;;;;;19.73;8.50;;;2.80;83.40;;;;;;5051741;28;20028;-73
2021/01/05 01:02:13;;;;;;;20.63;8.30;;;2.70;83.50;;;;;;5051021;28;20442;-73
2021/01/05 01:04:39;;;;;;;19.57;7.77;;;2.70;83.90;;;;;;5053218;28;20079;-73
2021/01/05 01:07:05;;;;;;;17.77;7.27;;;2.60;83.60;;;;;;5052178;28;20088;-73
2021/01/05 01:09:31;;;;;;;17.63;8.10;;;2.60;84.00;;;;;;5052521;28;20036;-73
2021/01/05 01:12:07;;;;;;;19.67;8.70;;;2.60;84.20;;;;;;5050537;28;20060;-73
2021/01/05 01:14:34;;;;;;;18.20;8.13;;;2.60;84.70;;;;;;5052499;28;20033;-73
2021/01/05 01:17:00;;;;;;;19.03;8.70;;;2.70;84.90;;;;;;5050549;28;20119;-73
2021/01/05 01:19:26;;;;;;;17.50;8.00;;;2.60;84.90;;;;;;5052245;28;20086;-73
2021/01/05 01:21:55;;;;;;;17.53;7.57;;;2.60;85.10;;;;;;5052134;28;20056;-73
2021/01/05 01:24:23;;;;;;;18.47;8.10;;;2.70;84.90;;;;;;5052376;28;20029;-73
2021/01/05 01:26:49;;;;;;;17.13;8.07;;;2.70;84.40;;;;;;5051234;28;20029;-74
2021/01/05 01:29:19;;;;;;;20.20;8.47;;;2.80;84.20;;;;;;5052277;28;20483;-73
2021/01/05 01:31:45;;;;;;;22.13;8.73;;;2.70;84.20;;;;;;5052491;28;20033;-74
2021/01/05 01:34:12;;;;;;;19.87;8.87;;;2.70;84.50;;;;;;5051900;28;20025;-73
2021/01/05 01:36:38;;;;;;;19.57;8.60;;;2.70;84.50;;;;;;5052233;28;20075;-73
2021/01/05 01:39:05;;;;;;;19.87;8.10;;;2.70;84.60;;;;;;5051552;28;20033;-73
2021/01/05 01:41:32;;;;;;;18.13;8.13;;;2.70;84.40;;;;;;5052336;28;20022;-73
2021/01/05 01:43:58;;;;;;;18.73;8.57;;;2.70;84.30;;;;;;5051777;28;20059;-73
2021/01/05 01:46:24;;;;;;;18.60;8.10;;;2.80;84.50;;;;;;5052283;28;20057;-73
2021/01/05 01:48:51;;;;;;;21.83;8.47;;;2.80;84.50;;;;;;5052571;28;20120;-73
2021/01/05 01:51:17;;;;;;;19.70;8.77;;;2.70;84.00;;;;;;5050362;28;20047;-73
2021/01/05 01:53:55;;;;;;;21.63;9.70;;;2.70;84.00;;;;;;5052319;28;20095;-73
2021/01/05 01:56:37;;;;;;;20.03;8.73;;;2.70;84.50;;;;;;5051725;28;20053;-73
2021/01/05 01:59:24;;;;;;;15.20;6.80;;;2.70;84.50;;;;;;5051757;28;20032;-73
2021/01/05 02:02:03;;;;;;;18.53;8.60;;;2.70;85.00;;;;;;5051032;28;20367;-73
2021/01/05 02:04:37;;;;;;;16.03;7.87;;;2.70;85.00;;;;;;5052352;28;20028;-74
2021/01/05 02:07:36;;;;;;;20.40;9.13;;;2.70;85.20;;;;;;5050255;28;20421;-73
2021/01/05 02:10:31;;;;;;;17.50;8.47;;;2.80;85.10;;;;;;5051524;28;20021;-73
2021/01/05 02:13:31;;;;;;;19.13;8.37;;;2.80;84.90;;;;;;5052157;28;20029;-74
2021/01/05 02:16:25;;;;;;;17.40;7.67;;;2.90;85.00;;;;;;5052369;28;20029;-74
2021/01/05 02:18:59;;;;;;;20.33;8.23;;;2.80;85.00;;;;;;5052265;28;20024;-74
2021/01/05 02:21:37;;;;;;;18.80;8.70;;;2.80;85.10;;;;;;5052231;28;20033;-73
2021/01/05 02:24:37;;;;;;;19.43;8.93;;;2.80;85.50;;;;;;5050302;28;20025;-73
2021/01/05 02:27:09;;;;;;;21.87;9.20;;;2.80;85.80;;;;;;5049583;28;20202;-73
2021/01/05 02:29:41;;;;;;;17.33;8.10;;;2.80;85.50;;;;;;5051991;28;20056;-74
2021/01/05 02:32:39;;;;;;;18.80;8.27;;;2.80;85.70;;;;;;5052279;28;20025;-74
2021/01/05 02:35:24;;;;;;;18.70;8.97;;;2.80;85.50;;;;;;5053476;28;20036;-73
2021/01/05 02:38:21;;;;;;;19.50;8.90;;;2.80;85.40;;;;;;5055735;28;20079;-74
2021/01/05 02:41:14;;;;;;;20.70;7.90;;;2.80;85.90;;;;;;5055767;28;20075;-73
2021/01/05 02:44:10;;;;;;;18.10;8.10;;;2.80;85.80;;;;;;5054302;28;20466;-74
2021/01/05 02:47:03;;;;;;;18.13;9.07;;;2.80;85.70;;;;;;5055420;28;20540;-73
2021/01/05 02:49:39;;;;;;;19.53;8.50;;;2.80;85.90;;;;;;5055512;28;20470;-74
2021/01/05 02:52:37;;;;;;;19.20;8.67;;;2.80;86.00;;;;;;5054855;28;20025;-73
2021/01/05 02:55:27;;;;;;;19.63;8.33;;;2.80;86.10;;;;;;5053513;28;20021;-73
2021/01/05 02:58:44;;;;;;;17.70;8.57;;;2.80;86.20;;;;;;5054970;28;20025;-73
2021/01/05 03:01:57;;;;;;;20.07;8.70;;;2.80;86.30;;;;;;5049685;28;20120;-73
2021/01/05 03:04:22;;;;;;;18.67;8.50;;;3.00;86.10;;;;;;5051354;28;20037;-73
2021/01/05 03:06:51;;;;;;;19.83;9.03;;;2.80;85.90;;;;;;5053774;28;20466;-73
2021/01/05 03:09:38;;;;;;;18.90;9.07;;;2.80;86.10;;;;;;5054400;28;20064;-73
2021/01/05 03:12:33;;;;;;;18.30;8.77;;;2.80;86.30;;;;;;5054195;28;20032;-73
2021/01/05 03:15:25;;;;;;;17.90;8.30;;;2.80;86.50;;;;;;5054949;28;20035;-73
2021/01/05 03:18:14;;;;;;;19.80;8.73;;;2.80;86.40;;;;;;5054721;28;20056;-73
2021/01/05 03:20:47;;;;;;;19.90;8.33;;;2.80;86.60;;;;;;5054982;28;20112;-73
2021/01/05 03:23:14;;;;;;;18.73;8.70;;;2.80;87.00;;;;;;5052967;28;20087;-73
2021/01/05 03:25:44;;;;;;;19.40;8.33;;;2.90;86.90;;;;;;5054743;28;20025;-73
2021/01/05 03:28:16;;;;;;;21.50;9.07;;;2.90;86.60;;;;;;5052730;28;20135;-73
2021/01/05 03:30:53;;;;;;;17.02;8.82;;;2.90;86.50;;;;;;5053447;28;20028;-73
2021/01/05 03:33:18;;;;;;;23.90;8.90;;;3.00;86.50;;;;;;5052742;28;20082;-73
2021/01/05 03:35:44;;;;;;;19.87;8.90;;;3.00;86.20;;;;;;5054641;28;20378;-73
2021/01/05 03:38:10;;;;;;;17.30;8.47;;;2.90;86.50;;;;;;5053509;28;20524;-73
2021/01/05 03:40:36;;;;;;;16.67;7.93;;;2.90;86.80;;;;;;5053544;28;20029;-73
2021/01/05 03:43:01;;;;;;;17.53;8.00;;;2.90;86.70;;;;;;5053712;28;20385;-73
2021/01/05 03:45:29;;;;;;;18.47;9.07;;;2.90;86.80;;;;;;5052543;28;20521;-73
2021/01/05 03:47:55;;;;;;;20.63;8.77;;;2.90;87.00;;;;;;5052986;28;20037;-74
2021/01/05 03:50:22;;;;;;;16.40;8.33;;;2.90;87.10;;;;;;5053919;28;20095;-73
2021/01/05 03:52:48;;;;;;;18.33;8.33;;;2.90;87.20;;;;;;5053017;28;20458;-73
2021/01/05 03:55:15;;;;;;;18.10;8.27;;;2.90;87.20;;;;;;5052291;28;20035;-73
2021/01/05 03:57:42;;;;;;;16.37;7.70;;;2.90;87.00;;;;;;5054098;28;20075;-73
2021/01/05 04:00:13;;;;;;;17.13;7.97;;;2.90;87.20;;;;;;5053709;28;20033;-73
2021/01/05 04:02:39;;;;;;;15.52;7.35;;;2.90;87.10;;;;;;5054343;28;20025;-73
2021/01/05 04:05:05;;;;;;;17.33;8.30;;;3.00;87.20;;;;;;5053747;28;20128;-74
2021/01/05 04:07:31;;;;;;;16.57;8.17;;;3.00;87.20;;;;;;5053862;28;20028;-74
2021/01/05 04:09:57;;;;;;;16.17;7.97;;;3.00;87.30;;;;;;5053849;28;20488;-73
2021/01/05 04:12:22;;;;;;;15.30;7.23;;;3.00;87.40;;;;;;5052929;28;20432;-73
2021/01/05 04:14:48;;;;;;;17.13;8.20;;;3.00;87.30;;;;;;5053761;28;20017;-74
2021/01/05 04:17:14;;;;;;;15.83;7.97;;;3.00;87.20;;;;;;5053165;28;20393;-73
2021/01/05 04:19:40;;;;;;;17.80;7.77;;;3.10;87.20;;;;;;5053675;28;20424;-73
2021/01/05 04:22:06;;;;;;;14.90;7.50;;;3.00;87.00;;;;;;5053586;28;20035;-73
2021/01/05 04:24:31;;;;;;;14.00;6.97;;;3.10;87.00;;;;;;5053637;28;20366;-73
2021/01/05 04:26:57;;;;;;;16.90;7.57;;;3.00;87.30;;;;;;5053399;28;20033;-73
2021/01/05 04:29:23;;;;;;;15.03;7.70;;;3.00;87.20;;;;;;5053059;28;20060;-73
2021/01/05 04:31:48;;;;;;;15.40;7.47;;;2.90;87.40;;;;;;5053487;28;20032;-73
2021/01/05 04:34:15;;;;;;;12.97;6.93;;;2.90;87.60;;;;;;5052470;28;20386;-73
2021/01/05 04:36:41;;;;;;;18.47;7.93;;;3.00;87.60;;;;;;5053449;28;20032;-73
2021/01/05 04:39:07;;;;;;;15.77;7.47;;;2.90;88.40;;;;;;5052099;28;20025;-73
2021/01/05 04:41:49;;;;;;;14.70;7.47;;;2.90;87.90;;;;;;5052053;28;20028;-73
2021/01/05 04:44:17;;;;;;;17.77;8.00;;;2.90;88.00;;;;;;5052727;28;20044;-73
2021/01/05 04:47:10;;;;;;;17.37;8.30;;;2.90;88.00;;;;;;5053533;28;20032;-73
2021/01/05 04:50:03;;;;;;;15.50;7.47;;;2.90;88.10;;;;;;5051911;28;20021;-73
2021/01/05 04:52:56;;;;;;;13.60;6.40;;;3.00;88.20;;;;;;5052602;28;20025;-73
2021/01/05 04:55:37;;;;;;;14.43;7.07;;;2.90;88.00;;;;;;5050075;28;20029;-73
2021/01/05 04:58:09;;;;;;;15.13;7.13;;;2.90;88.20;;;;;;5052990;28;20470;-73
2021/01/05 05:00:37;;;;;;;15.83;7.50;;;2.90;88.60;;;;;;5052900;28;20098;-73
2021/01/05 05:03:18;;;;;;;15.10;7.17;;;2.90;88.30;;;;;;5052880;28;20086;-73
2021/01/05 05:05:59;;;;;;;13.80;7.43;;;2.90;88.00;;;;;;5052928;28;20032;-74
2021/01/05 05:08:40;;;;;;;12.57;6.90;;;2.90;88.10;;;;;;5051056;28;20086;-73
2021/01/05 05:11:18;;;;;;;12.63;6.93;;;3.00;88.00;;;;;;5052701;28;20021;-73
2021/01/05 05:14:07;;;;;;;14.03;6.67;;;3.00;88.00;;;;;;5051739;28;20417;-73
2021/01/05 05:17:00;;;;;;;13.10;6.67;;;3.00;88.00;;;;;;5051901;28;20060;-73
2021/01/05 05:19:35;;;;;;;13.40;6.57;;;3.00;87.90;;;;;;5052164;28;20028;-73
2021/01/05 05:22:14;;;;;;;13.73;7.70;;;3.00;88.00;;;;;;5052437;28;20103;-74
2021/01/05 05:25:14;;;;;;;15.23;6.87;;;3.00;87.90;;;;;;5052804;28;20047;-73
2021/01/05 05:27:54;;;;;;;11.77;6.50;;;3.00;88.00;;;;;;5050995;28;20053;-73
2021/01/05 05:30:37;;;;;;;13.33;6.67;;;3.00;88.00;;;;;;5052105;28;20485;-73
2021/01/05 05:33:18;;;;;;;13.70;6.67;;;3.00;88.00;;;;;;5051439;28;20429;-74
2021/01/05 05:36:19;;;;;;;13.07;6.40;;;3.00;88.10;;;;;;5051513;28;20478;-73
2021/01/05 05:38:54;;;;;;;12.50;6.63;;;3.00;88.20;;;;;;5052518;28;20033;-73
2021/01/05 05:41:38;;;;;;;14.90;6.50;;;3.00;88.50;;;;;;5052192;28;20036;-73
2021/01/05 05:44:22;;;;;;;16.00;6.37;;;3.00;88.50;;;;;;5051313;28;20025;-73
2021/01/05 05:46:53;;;;;;;14.73;6.40;;;3.00;88.10;;;;;;5052336;28;20033;-73
2021/01/05 05:49:43;;;;;;;14.03;6.77;;;3.00;88.10;;;;;;5050280;28;20048;-74
2021/01/05 05:52:21;;;;;;;14.17;6.37;;;3.00;87.90;;;;;;5052374;28;20056;-74
2021/01/05 05:54:46;;;;;;;14.83;7.23;;;3.00;87.90;;;;;;5052059;28;20024;-73
2021/01/05 05:57:45;;;;;;;13.07;6.37;;;3.00;87.80;;;;;;5051714;28;20147;-73
2021/01/05 06:00:14;;;;;;;13.13;6.83;;;3.00;87.70;;;;;;5052334;28;20021;-73
2021/01/05 06:02:39;;;;;;;16.20;7.00;;;3.00;87.90;;;;;;5051007;28;20106;-73
2021/01/05 06:05:20;;;;;;;11.73;6.40;;;3.00;88.00;;;;;;5052281;28;20486;-74
2021/01/05 06:07:45;;;;;;;13.50;6.60;;;3.00;87.70;;;;;;5055857;28;20032;-74
2021/01/05 06:10:11;;;;;;;13.87;7.43;;;3.00;87.70;;;;;;5056197;28;20466;-73
2021/01/05 06:12:37;;;;;;;13.67;6.17;;;3.00;87.60;;;;;;5055535;28;20057;-73
2021/01/05 06:15:03;;;;;;;13.67;6.97;;;3.00;88.10;;;;;;5054857;28;20032;-74
2021/01/05 06:17:28;;;;;;;15.67;7.53;;;3.00;88.00;;;;;;5055169;28;20505;-73
2021/01/05 06:19:54;;;;;;;12.57;6.63;;;3.00;88.10;;;;;;5056041;28;20029;-73
2021/01/05 06:22:20;;;;;;;14.40;7.00;;;3.00;88.60;;;;;;5055123;28;20040;-74
2021/01/05 06:24:45;;;;;;;15.53;8.10;;;3.00;88.70;;;;;;5055824;28;20029;-73
2021/01/05 06:27:11;;;;;;;16.87;8.53;;;3.00;88.60;;;;;;5055565;28;20029;-73
2021/01/05 06:29:36;;;;;;;15.20;8.00;;;3.00;88.20;;;;;;5054959;28;20024;-73
2021/01/05 06:32:02;;;;;;;16.63;7.97;;;3.00;88.50;;;;;;5055772;28;20497;-73
2021/01/05 06:34:27;;;;;;;13.57;7.17;;;3.00;88.70;;;;;;5054866;28;20114;-73
2021/01/05 06:36:53;;;;;;;12.83;6.57;;;3.10;88.20;;;;;;5055373;28;20115;-74
2021/01/05 06:39:19;;;;;;;14.40;7.47;;;3.10;87.70;;;;;;5053419;28;20021;-73
2021/01/05 06:41:44;;;;;;;12.27;6.10;;;3.10;87.90;;;;;;5055542;28;20025;-74
2021/01/05 06:44:10;;;;;;;13.47;7.27;;;3.10;88.30;;;;;;5055788;28;20025;-74
2021/01/05 06:46:35;;;;;;;12.93;6.93;;;3.10;88.00;;;;;;5054779;28;20470;-73
2021/01/05 06:49:01;;;;;;;18.67;7.40;;;3.10;88.00;;;;;;5055700;28;20041;-74
2021/01/05 06:51:26;;;;;;;14.43;7.00;;;3.10;88.00;;;;;;5054421;28;20497;-73
2021/01/05 06:53:52;;;;;;;18.27;7.20;;;3.10;87.60;;;;;;5054117;28;20040;-73
2021/01/05 06:56:18;;;;;;;13.60;7.20;;;3.10;87.40;;;;;;5053456;28;20071;-73
2021/01/05 06:58:43;;;;;;;15.90;7.40;;;3.10;87.50;;;;;;5055339;28;20363;-73
2021/01/05 07:01:09;;;;;;;13.83;7.00;;;3.10;87.20;;;;;;5055679;28;20056;-73
2021/01/05 07:03:34;;;;;;;15.47;7.80;;;3.10;87.40;;;;;;5053215;28;20493;-73
2021/01/05 07:06:00;;;;;;;15.47;7.03;;;3.10;87.60;;;;;;5053874;28;20025;-73
2021/01/05 07:08:26;;;;;;;15.63;7.37;;;3.10;87.30;;;;;;5054468;28;20031;-73
2021/01/05 07:10:51;;;;;;;14.77;6.90;;;3.10;87.20;;;;;;5055346;28;20056;-73
2021/01/05 07:13:17;;;;;;;16.37;8.10;;;3.20;87.00;;;;;;5054345;28;20053;-72
2021/01/05 07:15:42;;;;;;;18.37;8.53;;;3.10;86.80;;;;;;5054893;28;20104;-73
2021/01/05 07:18:09;;;;;;;17.00;7.57;;;3.20;86.90;;;;;;5053859;28;20114;-73
2021/01/05 07:20:35;;;;;;;13.97;7.03;;;3.20;87.60;;;;;;5054044;28;20036;-73
2021/01/05 07:23:00;;;;;;;14.63;6.97;;;3.10;87.20;;;;;;5054769;28;20025;-73
2021/01/05 07:25:26;;;;;;;19.23;7.37;;;3.10;87.00;;;;;;5053870;28;20036;-72
2021/01/05 07:27:51;;;;;;;15.17;7.53;;;3.10;87.20;;;;;;5054177;28;20548;-73
2021/01/05 07:30:18;;;;;;;16.20;8.00;;;3.10;87.20;;;;;;5054503;28;20020;-72
2021/01/05 07:32:43;;;;;;;14.47;7.40;;;3.10;87.70;;;;;;5053429;28;20079;-72
2021/01/05 07:35:11;;;;;;;13.37;7.13;;;3.10;87.60;;;;;;5053267;28;20478;-73
2021/01/05 07:37:40;;;;;;;17.33;7.90;;;3.10;87.30;;;;;;5053937;28;20104;-73
2021/01/05 07:40:07;;;;;;;16.57;7.50;;;3.10;87.60;;;;;;5054800;28;20155;-73
2021/01/05 07:42:34;;;;;;;16.33;7.80;;;3.20;87.90;;;;;;5053791;28;20028;-73
2021/01/05 07:45:08;;;;;;;14.97;7.07;;;3.10;87.90;;;;;;5053147;28;20028;-73
2021/01/05 07:47:36;;;;;;;14.33;7.13;;;3.10;88.30;;;;;;5053667;28;20071;-73
2021/01/05 07:50:04;;;;;;;16.33;7.23;;;3.10;88.10;;;;;;5054340;28;20112;-73
2021/01/05 07:52:36;;;;;;;16.50;7.37;;;3.20;88.20;;;;;;5053991;28;20028;-73
2021/01/05 07:55:14;;;;;;;18.80;8.03;;;3.10;88.00;;;;;;5052900;28;20424;-73
2021/01/05 07:57:40;;;;;;;13.47;7.50;;;3.20;87.90;;;;;;5053870;28;20124;-73
2021/01/05 08:00:07;;;;;;;15.17;7.73;;;3.20;87.80;;;;;;5054133;28;20120;-73
2021/01/05 08:02:33;;;;;;;19.70;8.17;;;3.20;87.80;;;;;;5053468;28;20017;-73
2021/01/05 08:04:58;;;;;;;17.40;7.70;;;3.20;87.70;;;;;;5052819;28;20540;-73
2021/01/05 08:07:24;;;;;;;17.13;8.07;;;3.20;87.80;;;;;;5053408;28;20029;-72
2021/01/05 08:09:51;;;;;;;16.03;7.67;;;3.20;87.60;;;;;;5053968;28;20037;-72
2021/01/05 08:12:19;;;;;;;16.07;7.50;;;3.20;87.50;;;;;;5053653;28;20399;-74
2021/01/05 08:14:45;;;;;;;14.20;7.53;;;3.20;87.30;;;;;;5053515;28;20028;-73
2021/01/05 08:17:11;;;;;;;26.63;12.43;;;3.20;87.30;;;;;;5052494;28;20029;-73
2021/01/05 08:19:41;;;;;;;16.57;8.30;;;3.20;87.50;;;;;;5051764;28;20036;-72
2021/01/05 08:22:06;;;;;;;17.00;8.67;;;3.20;87.00;;;;;;5053459;28;20112;-73
2021/01/05 08:24:32;;;;;;;18.93;8.63;;;3.20;86.70;;;;;;5051836;28;20536;-73
2021/01/05 08:26:57;;;;;;;15.83;7.27;;;3.20;86.70;;;;;;5053491;28;20470;-73
2021/01/05 08:29:23;;;;;;;15.77;7.57;;;3.30;86.80;;;;;;5050325;28;20048;-72
2021/01/05 08:31:49;;;;;;;19.40;8.43;;;3.20;86.90;;;;;;5052405;28;20028;-73
2021/01/05 08:34:15;;;;;;;15.00;7.70;;;3.30;86.80;;;;;;5053377;28;20378;-73
2021/01/05 08:36:41;;;;;;;17.43;8.57;;;3.30;86.70;;;;;;5051599;28;20329;-73
2021/01/05 08:39:10;;;;;;;17.03;8.03;;;3.30;86.70;;;;;;5053484;28;20455;-73
2021/01/05 08:41:36;;;;;;;15.10;7.60;;;3.30;86.70;;;;;;5051442;28;20033;-73
2021/01/05 08:44:01;;;;;;;16.67;8.10;;;3.20;86.70;;;;;;5051999;28;20459;-73
2021/01/05 08:46:29;;;;;;;17.10;7.47;;;3.30;87.00;;;;;;5052685;28;20036;-72
2021/01/05 08:48:55;;;;;;;15.00;7.63;;;3.30;86.30;;;;;;5053023;28;20033;-73
2021/01/05 08:51:22;;;;;;;15.57;7.93;;;3.30;86.20;;;;;;5051581;28;20032;-73
2021/01/05 08:53:49;;;;;;;16.57;7.77;;;3.20;86.50;;;;;;5051738;28;20386;-73
2021/01/05 08:56:26;;;;;;;16.47;7.83;;;3.30;86.60;;;;;;5053103;28;20025;-73
2021/01/05 08:58:52;;;;;;;16.97;7.93;;;3.30;86.30;;;;;;5053039;28;20040;-72
2021/01/05 09:01:19;;;;;;;20.07;8.37;;;3.30;86.30;;;;;;5052663;28;20028;-73
2021/01/05 09:03:45;;;;;;;16.77;7.77;;;3.40;86.10;;;;;;5051108;28;20029;-73
2021/01/05 09:06:11;;;;;;;16.70;7.70;;;3.30;86.40;;;;;;5052872;28;20075;-73
2021/01/05 09:08:38;;;;;;;16.93;8.00;;;3.30;86.30;;;;;;5050879;28;20033;-73
2021/01/05 09:11:15;;;;;;;16.80;7.63;;;3.30;86.50;;;;;;5052491;28;20039;-73
2021/01/05 09:13:41;;;;;;;18.20;8.43;;;3.30;86.80;;;;;;5050956;28;20492;-73
2021/01/05 09:16:07;;;;;;;17.03;8.33;;;3.30;86.60;;;;;;5052758;28;20049;-73
2021/01/05 09:18:33;;;;;;;19.33;8.60;;;3.30;86.80;;;;;;5050874;28;20471;-72
2021/01/05 09:20:58;;;;;;;15.97;8.40;;;3.30;86.50;;;;;;5052719;28;20067;-73
2021/01/05 09:23:24;;;;;;;14.83;6.97;;;3.30;86.30;;;;;;5051053;28;20029;-73
2021/01/05 09:25:55;;;;;;;17.20;8.33;;;3.30;86.20;;;;;;5051393;28;20359;-73
2021/01/05 09:28:22;;;;;;;16.40;8.20;;;3.30;86.40;;;;;;5051170;28;20055;-73
2021/01/05 09:30:48;;;;;;;16.93;8.17;;;3.30;86.20;;;;;;5050741;28;20021;-73
2021/01/05 09:33:18;;;;;;;14.43;7.43;;;3.40;86.30;;;;;;5051312;28;20037;-73
2021/01/05 09:35:44;;;;;;;16.87;7.77;;;3.40;86.30;;;;;;5050629;28;20509;-73
2021/01/05 09:38:10;;;;;;;16.33;7.37;;;3.40;86.10;;;;;;5051219;28;20033;-73
2021/01/05 09:40:40;;;;;;;17.13;8.07;;;3.40;86.00;;;;;;5051712;28;20406;-73
2021/01/05 09:43:08;;;;;;;16.17;7.70;;;3.50;85.90;;;;;;5052439;28;20024;-77
2021/01/05 09:45:35;;;;;;;16.47;7.73;;;3.50;85.90;;;;;;5050570;28;20033;-75
2021/01/05 09:48:11;;;;;;;19.93;8.83;;;3.50;85.90;;;;;;5051020;28;20049;-73
2021/01/05 09:50:42;;;;;;;18.40;7.90;;;3.60;86.00;;;;;;5051828;28;20058;-75
2021/01/05 09:53:08;;;;;;;15.57;6.97;;;3.50;85.80;;;;;;5052337;28;20040;-75
2021/01/05 09:55:34;;;;;;;15.60;7.83;;;3.60;85.70;;;;;;5051807;28;20037;-75
2021/01/05 09:58:00;;;;;;;17.93;8.00;;;3.60;85.80;;;;;;5052395;28;20033;-75
2021/01/05 10:00:27;;;;;;;15.73;8.00;;;3.50;85.70;;;;;;5050727;28;20036;-75
2021/01/05 10:02:53;;;;;;;18.23;7.80;;;3.60;85.90;;;;;;5052507;28;20033;-75
2021/01/05 10:05:19;;;;;;;20.67;9.10;;;3.60;85.80;;;;;;5052523;28;20025;-75
2021/01/05 10:07:45;;;;;;;16.63;8.50;;;3.50;85.80;;;;;;5050335;28;20106;-75
2021/01/05 10:10:31;;;;;;;19.23;8.30;;;3.50;86.40;;;;;;5051061;28;20025;-75
2021/01/05 10:12:57;;;;;;;17.10;7.87;;;3.50;86.30;;;;;;5050401;28;20044;-75
2021/01/05 10:15:24;;;;;;;15.63;8.47;;;3.50;86.30;;;;;;5051043;28;20377;-75
2021/01/05 10:17:50;;;;;;;18.80;8.53;;;3.50;86.20;;;;;;5051327;28;20470;-75
2021/01/05 10:20:19;;;;;;;16.70;7.90;;;3.50;86.30;;;;;;5050785;28;20029;-75
2021/01/05 10:22:46;;;;;;;17.90;8.20;;;3.50;86.50;;;;;;5051027;28;20040;-74
2021/01/05 10:25:12;;;;;;;16.13;7.80;;;3.50;86.50;;;;;;5052255;28;20025;-75
2021/01/05 10:27:38;;;;;;;15.63;8.23;;;3.50;86.50;;;;;;5051115;28;20079;-74
2021/01/05 10:30:06;;;;;;;19.40;9.13;;;3.50;86.50;;;;;;5052055;28;20470;-75
2021/01/05 10:32:31;;;;;;;17.77;8.67;;;3.60;86.40;;;;;;5050182;28;20037;-74
2021/01/05 10:34:57;;;;;;;15.57;7.97;;;3.60;86.40;;;;;;5052325;28;20029;-75
2021/01/05 10:37:23;;;;;;;20.03;8.40;;;3.60;86.30;;;;;;5050656;28;20033;-75
2021/01/05 10:39:48;;;;;;;17.00;8.50;;;3.50;86.70;;;;;;5051297;28;20040;-74
2021/01/05 10:42:14;;;;;;;15.97;8.50;;;3.50;86.80;;;;;;5050608;28;20029;-75
2021/01/05 10:44:40;;;;;;;18.47;8.17;;;3.50;86.80;;;;;;5049942;28;20454;-75
2021/01/05 10:47:06;;;;;;;19.50;8.30;;;3.50;86.80;;;;;;5051569;28;20032;-75
2021/01/05 10:49:32;;;;;;;19.13;8.30;;;3.50;86.80;;;;;;5050145;28;20385;-75
2021/01/05 10:52:01;;;;;;;17.67;8.23;;;3.50;86.90;;;;;;5050572;28;20196;-75
2021/01/05 10:54:28;;;;;;;17.87;8.60;;;3.50;87.10;;;;;;5054568;28;20053;-75
2021/01/05 10:56:59;;;;;;;16.97;8.03;;;3.60;87.10;;;;;;5053392;28;20029;-75
2021/01/05 10:59:26;;;;;;;16.83;8.40;;;3.60;86.90;;;;;;5055565;28;20071;-75
2021/01/05 11:01:52;;;;;;;17.07;8.37;;;3.60;86.70;;;;;;5054686;28;20087;-74
2021/01/05 11:04:18;;;;;;;17.27;8.07;;;3.60;86.70;;;;;;5055497;28;20459;-75
2021/01/05 11:07:04;;;;;;;16.53;8.07;;;3.70;86.70;;;;;;5054493;28;20029;-74
2021/01/05 11:09:30;;;;;;;15.53;7.90;;;3.70;86.80;;;;;;5055081;28;20036;-75
2021/01/05 11:11:57;;;;;;;17.37;7.77;;;3.70;86.80;;;;;;5055025;28;20068;-74
2021/01/05 11:14:23;;;;;;;18.07;7.87;;;3.60;86.40;;;;;;5054721;28;20028;-75
2021/01/05 11:16:49;;;;;;;15.80;7.30;;;3.60;86.20;;;;;;5054292;28;20462;-74
2021/01/05 11:19:15;;;;;;;16.40;7.87;;;3.60;86.00;;;;;;5055127;28;20040;-75
2021/01/05 11:21:47;;;;;;;17.73;8.40;;;3.60;86.00;;;;;;5053868;28;20078;-74
2021/01/05 11:24:13;;;;;;;;;;;3.60;86.10;;;;;;5055065;28;20054;-75
2021/01/05 11:26:39;;;;;;;15.70;7.33;;;3.70;85.90;;;;;;5086478;28;19917;-74
2021/01/05 11:29:04;;;;;;;20.43;8.47;;;3.60;86.10;;;;;;5054964;28;20474;-74
2021/01/05 11:31:30;;;;;;;17.30;7.50;;;3.60;86.10;;;;;;5053410;28;20020;-75
2021/01/05 11:33:56;;;;;;;14.60;7.30;;;3.60;85.90;;;;;;5054273;28;20032;-75
2021/01/05 11:36:24;;;;;;;17.83;7.97;;;3.60;86.00;;;;;;5054545;28;20021;-75
2021/01/05 11:38:50;;;;;;;16.90;7.00;;;3.60;85.80;;;;;;5052671;28;20124;-75
2021/01/05 11:41:34;;;;;;;20.40;7.53;;;3.60;85.90;;;;;;5053281;28;20096;-75
2021/01/05 11:44:01;;;;;;;17.00;8.17;;;3.60;86.10;;;;;;5054483;28;20072;-75
2021/01/05 11:46:27;;;;;;;14.80;7.73;;;3.60;86.40;;;;;;5053204;28;20025;-75
2021/01/05 11:48:54;;;;;;;14.83;7.33;;;3.60;86.10;;;;;;5053692;28;20048;-75
2021/01/05 11:51:30;;;;;;;19.60;8.30;;;3.60;86.00;;;;;;5052904;28;20489;-75
2021/01/05 11:53:56;;;;;;;17.73;8.40;;;3.60;85.90;;;;;;5053723;28;20041;-75
2021/01/05 11:56:27;;;;;;;17.33;8.53;;;3.50;85.90;;;;;;5054205;28;20079;-75
2021/01/05 11:58:53;;;;;;;16.98;7.75;;;3.50;86.00;;;;;;5052403;28;20568;-75
2021/01/05 12:01:19;;;;;;;17.37;8.43;;;3.50;86.10;;;;;;5054102;28;20078;-75
2021/01/05 12:03:45;;;;;;;17.90;8.20;;;3.50;86.50;;;;;;5052030;28;20025;-75
2021/01/05 12:06:15;;;;;;;16.53;8.23;;;3.50;86.80;;;;;;5052815;28;20043;-75
2021/01/05 12:08:41;;;;;;;21.50;8.03;;;3.60;86.90;;;;;;5051743;28;20425;-75
2021/01/05 12:11:07;;;;;;;18.87;8.07;;;3.60;86.80;;;;;;5052244;28;20025;-75
2021/01/05 12:13:33;;;;;;;17.33;7.83;;;3.60;86.70;;;;;;5052549;28;20036;-75
2021/01/05 12:15:58;;;;;;;16.23;7.50;;;3.60;86.60;;;;;;5053544;28;20104;-75
2021/01/05 12:18:24;;;;;;;59.53;21.97;;;3.60;86.60;;;;;;5052482;28;20033;-75
2021/01/05 12:20:50;;;;;;;24.77;11.80;;;3.60;86.70;;;;;;5051692;28;20032;-74
2021/01/05 12:23:16;;;;;;;16.53;8.43;;;3.60;86.70;;;;;;5052377;28;20040;-75
2021/01/05 12:25:41;;;;;;;17.73;8.30;;;3.60;86.40;;;;;;5052961;28;20025;-74
2021/01/05 12:28:07;;;;;;;17.10;8.20;;;3.70;87.10;;;;;;5052201;28;20064;-75
2021/01/05 12:30:33;;;;;;;20.83;9.13;;;3.70;86.40;;;;;;5053208;28;20032;-75
2021/01/05 12:32:59;;;;;;;17.33;8.30;;;3.70;86.30;;;;;;5051646;28;20024;-75
2021/01/05 12:35:25;;;;;;;17.63;8.33;;;3.70;86.30;;;;;;5053368;28;20102;-75
2021/01/05 12:37:51;;;;;;;18.37;8.90;;;3.70;86.40;;;;;;5051520;28;20458;-75
2021/01/05 12:40:17;;;;;;;17.23;8.27;;;3.70;86.60;;;;;;5052040;28;20115;-75
2021/01/05 12:42:42;;;;;;;16.17;8.50;;;3.70;86.50;;;;;;5052662;28;20060;-75
2021/01/05 12:45:09;;;;;;;20.83;8.93;;;3.70;86.30;;;;;;5051946;28;20028;-74
2021/01/05 12:47:35;;;;;;;16.20;8.43;;;3.70;86.40;;;;;;5053304;28;20025;-74
2021/01/05 12:50:01;;;;;;;18.30;9.00;;;3.70;86.50;;;;;;5051281;28;20044;-75
2021/01/05 12:52:26;;;;;;;17.77;7.40;;;3.70;86.80;;;;;;5051793;28;20068;-74
2021/01/05 12:54:52;;;;;;;16.27;8.03;;;3.70;86.50;;;;;;5051150;28;20175;-74
2021/01/05 12:57:18;;;;;;;17.13;8.37;;;3.70;86.40;;;;;;5051747;28;20078;-74
2021/01/05 12:59:48;;;;;;;15.63;7.57;;;3.70;86.30;;;;;;5051078;28;20375;-74
2021/01/05 13:02:25;;;;;;;17.70;7.97;;;3.70;86.30;;;;;;5053207;28;20197;-75
2021/01/05 13:04:51;;;;;;;15.67;7.93;;;3.70;86.40;;;;;;5052134;28;20029;-75